Startpagina
METAR-TAF:

METAR-TAF

Vliegvelden :

Nationale Luchthaven Minsk

Minsk, Wit-Rusland

breedte: 53-56N, lengte: 027-38E, hoogte: 234 m

Actueel weer

Dit bericht is 35 minuten geleden gemaakt, om 13:00 UTC
Wind 14 kt uit het zuidoosten
Temperatuur -4°C
Vochtigheid 46%
Druk 1033 hPa
Zicht 10 km of meer
geen wolken onder 1500 m en geen cumulonimbus

METAR: UMMS 221300Z 13007MPS CAVOK M04/M14 Q1033 R13L/CLRD// R13R/190055 NOSIG

Tijdstip: 16:35 (13:35 UTC)

Verwachting

Dit bericht is 2 uur en het 30 minuten geleden gemaakt, om 11:05 UTC
Verwachting geldig van 22 om 12 UTC tot 23 om 12 UTC
Wind 16 kt uit het zuidoosten met uitschieters tot 25 kt
Zicht 10 km of meer
Verspreide wolken op 3000 ft
Tijdelijke
van 22 om 12 UTC tot 23 om 06 UTC
Wind 19 kt uit het zuidoosten met uitschieters tot 29 kt

TAF: UMMS 221105Z 2212/2312 13008G13MPS 9999 SCT030 TEMPO 2212/2306 14010G15MPS

Waarnemingen en weersverwachtingen van meer dan 4000 vliegvelden (METAR en TAF).

De beschikbare stations zijn de gele en rode punten op de kaart.

Ga met uw muis naar het station om de naam te zien.

Klik dan om waarnemingen en weersverwachtingen te zien.

kaart wijzigen: klik op de groene knoppen met een zwart kruis om in te zoomen, op de groene knop met een streepje om uit te zoomen of op de groene pijlen voor aangrenzende kaarten.


METAR-TAF: